createdAt,value
2023-05-08T00:09:08.518Z,99700.41
2023-05-08T00:19:09.940Z,99704.13
2023-05-08T00:29:11.491Z,99712.84
2023-05-08T00:39:13.069Z,99729.06
2023-05-08T00:49:14.694Z,99727.56
2023-05-08T00:59:16.745Z,99730.88
2023-05-08T01:09:18.160Z,99722.19
2023-05-08T01:19:52.887Z,99716.97
2023-05-08T01:30:16.782Z,99719.88
2023-05-08T01:40:40.155Z,99726.53
2023-05-08T01:50:49.406Z,99740.03
2023-05-08T02:00:51.391Z,99743.13
2023-05-08T02:10:52.900Z,99751.22
2023-05-08T02:20:54.319Z,99754.94
2023-05-08T02:30:55.865Z,99752.25
2023-05-08T02:40:58.438Z,99760.34
2023-05-08T02:51:21.021Z,99760.34
2023-05-08T03:01:31.517Z,99773.22
2023-05-08T03:11:40.723Z,99770.31
2023-05-08T03:21:42.558Z,99769.06
2023-05-08T03:31:44.150Z,99774.66
2023-05-08T03:41:45.873Z,99777.53
2023-05-08T03:51:47.403Z,99772.56
2023-05-08T04:01:51.633Z,99763.84
2023-05-08T04:12:05.274Z,99759.47
2023-05-08T04:22:07.628Z,99756.78
2023-05-08T04:32:09.358Z,99775.66
2023-05-08T04:42:10.992Z,99784.16
2023-05-08T04:52:12.401Z,99785.00
2023-05-08T05:02:13.825Z,99785.66
2023-05-08T05:12:15.598Z,99790.00
2023-05-08T05:22:16.988Z,99797.03
2023-05-08T05:32:18.887Z,99802.69
2023-05-08T05:42:20.484Z,99821.38
2023-05-08T05:52:22.005Z,99825.75
2023-05-08T06:02:23.625Z,99837.00
2023-05-08T06:12:25.454Z,99832.47
2023-05-08T06:22:27.111Z,99840.16
2023-05-08T06:32:28.600Z,99850.13
2023-05-08T06:42:30.012Z,99846.59
2023-05-08T06:52:31.444Z,99853.28
2023-05-08T07:02:33.006Z,99845.16
2023-05-08T07:12:34.543Z,99845.41
2023-05-08T07:22:35.933Z,99828.34
2023-05-08T07:32:39.231Z,99841.09
2023-05-08T07:42:44.356Z,99860.00
2023-05-08T07:52:47.029Z,99856.53
2023-05-08T08:02:50.354Z,99865.25
2023-05-08T08:12:51.920Z,99868.38
2023-05-08T08:22:53.456Z,99880.00
2023-05-08T08:32:55.076Z,99886.50
2023-05-08T08:42:56.564Z,99878.16
2023-05-08T08:53:07.570Z,99881.69
2023-05-08T09:03:09.262Z,99875.88
2023-05-08T09:13:10.729Z,99879.22
2023-05-08T09:23:14.001Z,99881.47
2023-05-08T09:33:15.428Z,99877.31
2023-05-08T09:43:17.120Z,99883.38
2023-05-08T09:53:18.588Z,99893.38
2023-05-08T10:03:20.187Z,99894.00
2023-05-08T10:13:21.814Z,99888.78
2023-05-08T10:23:23.307Z,99892.13
2023-05-08T10:33:26.020Z,99884.47
2023-05-08T10:43:29.059Z,99870.31
2023-05-08T10:53:51.098Z,99858.81
2023-05-08T11:03:52.860Z,99867.56
2023-05-08T11:14:15.046Z,99860.47
2023-05-08T11:24:16.417Z,99869.22
2023-05-08T11:34:43.117Z,99867.97
2023-05-08T11:44:44.943Z,99853.44
2023-05-08T11:54:46.505Z,99854.25
2023-05-08T12:04:48.257Z,99843.22
2023-05-08T12:14:51.537Z,99848.63
2023-05-08T12:24:52.986Z,99847.16
2023-05-08T12:34:54.384Z,99848.00
2023-05-08T12:44:55.784Z,99844.47
2023-05-08T12:54:57.234Z,99836.56
2023-05-08T13:04:59.265Z,99832.00
2023-05-08T13:15:01.053Z,99837.19
2023-05-08T13:25:02.602Z,99833.03
2023-05-08T13:35:04.361Z,99814.53
2023-05-08T13:45:07.415Z,99810.81
2023-05-08T13:55:10.384Z,99798.53
2023-05-08T14:05:12.064Z,99786.25
2023-05-08T14:15:14.012Z,99772.72
2023-05-08T14:25:15.864Z,99763.53
2023-05-08T14:35:17.524Z,99760.63
2023-05-08T14:45:19.065Z,99767.69
2023-05-08T14:55:21.349Z,99760.41
2023-05-08T15:05:23.350Z,99757.06
2023-05-08T15:15:24.846Z,99767.28
2023-05-08T15:25:26.450Z,99768.13
2023-05-08T15:35:28.018Z,99760.66
2023-05-08T15:45:29.452Z,99747.34
2023-05-08T15:55:30.867Z,99743.59
2023-05-08T16:05:32.391Z,99737.34
2023-05-08T16:15:33.766Z,99722.38
2023-05-08T16:25:35.186Z,99729.06
2023-05-08T16:35:36.796Z,99725.31
2023-05-08T16:45:38.203Z,99716.38
2023-05-08T16:55:39.739Z,99707.88
2023-05-08T17:05:41.144Z,99715.34
2023-05-08T17:15:42.732Z,99722.84
2023-05-08T17:25:44.106Z,99735.94
2023-05-08T17:35:45.506Z,99724.31
2023-05-08T17:45:47.073Z,99720.56
2023-05-08T17:55:48.493Z,99719.53
2023-05-08T18:05:49.903Z,99727.84
2023-05-08T18:15:51.375Z,99735.13
2023-05-08T18:25:52.779Z,99721.63
2023-05-08T18:35:54.218Z,99727.63
2023-05-08T18:45:55.988Z,99730.94
2023-05-08T18:55:57.513Z,99723.44
2023-05-08T19:05:59.106Z,99706.19
2023-05-08T19:16:00.527Z,99712.84
2023-05-08T19:26:01.960Z,99717.84
2023-05-08T19:36:03.516Z,99717.59
2023-05-08T19:46:05.168Z,99719.66
2023-05-08T19:56:06.588Z,99711.16
2023-05-08T20:06:07.975Z,99713.44
2023-05-08T20:16:09.407Z,99705.75
2023-05-08T20:26:10.891Z,99702.63
2023-05-08T20:36:12.433Z,99707.38
2023-05-08T20:46:13.895Z,99705.75
2023-05-08T20:56:17.359Z,99706.16
2023-05-08T21:06:20.580Z,99701.78
2023-05-08T21:16:23.078Z,99685.19
2023-05-08T21:26:25.756Z,99680.00
2023-05-08T21:36:27.580Z,99683.72
2023-05-08T21:46:29.063Z,99660.06
2023-05-08T21:56:30.533Z,99665.63
2023-05-08T22:06:32.840Z,99657.75
2023-05-08T22:16:34.691Z,99647.19
2023-05-08T22:26:36.133Z,99641.78
2023-05-08T22:36:37.698Z,99639.09
2023-05-08T22:46:39.450Z,99626.41
2023-05-08T22:56:41.097Z,99619.16
2023-05-08T23:06:42.526Z,99608.38
2023-05-08T23:16:43.954Z,99606.06
2023-05-08T23:26:48.234Z,99586.56
2023-05-08T23:36:49.773Z,99571.22
2023-05-08T23:46:51.201Z,99567.50
2023-05-08T23:56:52.611Z,99563.13
